Marble Hill, Missouri
Current Conditions -  °F | °C
As of 3:53 PM on Tuesday 21 Oct 2014 (Local Time) from KCGI Reporting Station
Clear Clear  
Wind Chill: 71°   Ceiling: Unl
Heat Index: 71°   Visibility: 10mi
Dew Point: 45°   Wind: 12mph
Humidity: 39%   Direction: 350°N
Pressure: 30.07"   Gusts: NA
Location:  37.31°N, 89.97°W
Report Text: KCGI 212053Z 35010KT 10SM CLR 22/07 A3007 RMK AO2 SLP180 T02170072 56008
Loading
Personal Weather Stations






























Interactive Weather Map
Tropical Storm Tracking
New forecast layout! Learn more

10-Day Weather Forecast

Advertisements
Track Severe Weather on mobile